createdAt,value
2022-12-18T00:01:28.662Z,102406.13
2022-12-18T00:03:56.048Z,102407.28
2022-12-18T00:06:26.933Z,102407.44
2022-12-18T00:08:53.319Z,102413.00
2022-12-18T00:11:21.049Z,102417.53
2022-12-18T00:13:47.739Z,102420.69
2022-12-18T00:16:17.531Z,102416.16
2022-12-18T00:18:43.972Z,102420.22
2022-12-18T00:21:11.810Z,102424.84
2022-12-18T00:23:39.431Z,102422.16
2022-12-18T00:26:07.243Z,102426.81
2022-12-18T00:28:33.915Z,102426.25
2022-12-18T00:31:08.107Z,102421.31
2022-12-18T00:33:35.415Z,102423.03
2022-12-18T00:36:10.223Z,102422.63
2022-12-18T00:38:36.635Z,102430.91
2022-12-18T00:41:03.002Z,102424.22
2022-12-18T00:43:29.401Z,102422.50
2022-12-18T00:45:55.845Z,102412.16
2022-12-18T00:48:22.337Z,102410.25
2022-12-18T00:50:49.650Z,102411.25
2022-12-18T00:53:16.107Z,102405.59
2022-12-18T00:55:42.856Z,102414.63
2022-12-18T00:58:10.067Z,102421.28
2022-12-18T01:00:36.757Z,102408.50
2022-12-18T01:03:03.550Z,102416.66
2022-12-18T01:05:30.123Z,102410.41
2022-12-18T01:07:57.206Z,102408.78
2022-12-18T01:10:24.013Z,102401.34
2022-12-18T01:12:50.796Z,102401.38
2022-12-18T01:15:17.966Z,102406.63
2022-12-18T01:17:44.375Z,102403.41
2022-12-18T01:20:11.660Z,102407.47
2022-12-18T01:22:38.612Z,102412.13
2022-12-18T01:25:07.689Z,102412.69
2022-12-18T01:27:34.395Z,102414.97
2022-12-18T01:30:03.133Z,102412.31
2022-12-18T01:32:32.830Z,102417.31
2022-12-18T01:34:59.196Z,102410.34
2022-12-18T01:37:27.173Z,102409.44
2022-12-18T01:39:55.212Z,102404.38
2022-12-18T01:42:21.606Z,102410.31
2022-12-18T01:44:57.562Z,102401.03
2022-12-18T01:47:30.732Z,102394.00
2022-12-18T01:49:58.086Z,102405.56
2022-12-18T01:52:25.987Z,102398.69
2022-12-18T01:54:52.682Z,102405.81
2022-12-18T01:57:19.324Z,102398.88
2022-12-18T01:59:48.836Z,102404.69
2022-12-18T02:02:16.635Z,102407.78
2022-12-18T02:04:49.390Z,102415.56
2022-12-18T02:07:25.902Z,102405.84
2022-12-18T02:09:59.826Z,102409.91
2022-12-18T02:12:30.182Z,102402.22
2022-12-18T02:14:56.570Z,102398.00
2022-12-18T02:17:25.652Z,102389.50
2022-12-18T02:20:10.436Z,102400.06
2022-12-18T02:22:40.124Z,102410.88
2022-12-18T02:25:18.917Z,102410.00
2022-12-18T02:27:46.971Z,102406.63
2022-12-18T02:30:14.596Z,102410.81
2022-12-18T02:32:43.409Z,102402.22
2022-12-18T02:35:14.531Z,102390.44
2022-12-18T02:37:43.286Z,102391.31
2022-12-18T02:40:11.808Z,102386.94
2022-12-18T02:42:38.375Z,102392.00
2022-12-18T02:45:07.858Z,102382.56
2022-12-18T02:47:38.881Z,102387.84
2022-12-18T02:50:10.807Z,102388.59
2022-12-18T02:52:37.827Z,102386.94
2022-12-18T02:55:19.211Z,102401.53
2022-12-18T02:58:04.231Z,102393.03
2022-12-18T03:00:40.253Z,102388.88
2022-12-18T03:03:12.505Z,102392.28
2022-12-18T03:05:59.636Z,102388.97
2022-12-18T03:08:30.165Z,102386.28
2022-12-18T03:10:58.823Z,102384.63
2022-12-18T03:13:32.526Z,102383.00
2022-12-18T03:15:59.954Z,102377.97
2022-12-18T03:18:38.578Z,102376.38
2022-12-18T03:21:06.297Z,102383.13
2022-12-18T03:23:40.613Z,102377.22
2022-12-18T03:26:10.349Z,102377.16
2022-12-18T03:28:40.693Z,102360.34
2022-12-18T03:31:10.468Z,102364.47
2022-12-18T03:33:43.316Z,102355.38
2022-12-18T03:36:09.799Z,102368.00
2022-12-18T03:38:36.354Z,102368.00
2022-12-18T03:41:12.317Z,102375.66
2022-12-18T03:44:04.882Z,102378.94
2022-12-18T03:46:34.626Z,102379.03
2022-12-18T03:49:09.604Z,102372.25
2022-12-18T03:51:36.322Z,102370.41
2022-12-18T03:54:04.916Z,102365.56
2022-12-18T03:56:43.052Z,102357.13
2022-12-18T03:59:12.383Z,102362.09
2022-12-18T04:01:41.781Z,102358.69
2022-12-18T04:04:11.352Z,102357.91
2022-12-18T04:06:39.643Z,102351.09
2022-12-18T04:09:07.582Z,102355.31
2022-12-18T04:11:38.443Z,102353.78
2022-12-18T04:14:07.397Z,102349.56
2022-12-18T04:16:34.625Z,102344.47
2022-12-18T04:19:03.722Z,102346.16
2022-12-18T04:21:35.635Z,102346.97
2022-12-18T04:24:02.057Z,102345.25
2022-12-18T04:26:29.221Z,102344.47
2022-12-18T04:29:15.329Z,102340.16
2022-12-18T04:31:42.474Z,102342.84
2022-12-18T04:34:09.705Z,102342.06
2022-12-18T04:36:42.164Z,102356.22
2022-12-18T04:39:08.689Z,102341.56
2022-12-18T04:41:35.134Z,102344.53
2022-12-18T04:44:02.231Z,102343.25
2022-12-18T04:46:28.667Z,102335.81
2022-12-18T04:48:55.118Z,102351.94
2022-12-18T04:51:26.388Z,102347.91
2022-12-18T04:53:53.562Z,102335.66
2022-12-18T04:56:20.254Z,102334.88
2022-12-18T04:58:46.772Z,102335.06
2022-12-18T05:01:14.221Z,102329.00
2022-12-18T05:03:41.059Z,102319.63
2022-12-18T05:06:08.143Z,102317.53
2022-12-18T05:08:34.869Z,102307.91
2022-12-18T05:11:05.553Z,102318.75
2022-12-18T05:13:32.364Z,102315.81
2022-12-18T05:15:58.795Z,102325.88
2022-12-18T05:18:25.808Z,102330.81
2022-12-18T05:20:52.848Z,102328.44
2022-12-18T05:23:19.575Z,102317.88
2022-12-18T05:25:53.986Z,102310.34
2022-12-18T05:28:20.850Z,102319.59
2022-12-18T05:30:51.187Z,102319.75
2022-12-18T05:33:18.139Z,102326.34
2022-12-18T05:35:44.953Z,102340.72
2022-12-18T05:38:11.635Z,102340.97
2022-12-18T05:40:38.029Z,102340.81
2022-12-18T05:43:04.385Z,102338.13
2022-12-18T05:45:30.725Z,102343.34
2022-12-18T05:47:57.091Z,102353.81
2022-12-18T05:50:23.880Z,102357.38
2022-12-18T05:52:50.571Z,102353.69
2022-12-18T05:55:16.965Z,102352.78
2022-12-18T05:57:43.324Z,102362.28
2022-12-18T06:00:10.045Z,102374.44
2022-12-18T06:02:38.630Z,102375.09
2022-12-18T06:05:05.261Z,102380.03
2022-12-18T06:07:31.621Z,102373.06
2022-12-18T06:09:57.973Z,102381.66
2022-12-18T06:12:24.343Z,102393.25
2022-12-18T06:14:50.683Z,102391.44
2022-12-18T06:17:17.019Z,102385.59
2022-12-18T06:19:43.401Z,102392.81
2022-12-18T06:22:09.762Z,102387.59
2022-12-18T06:24:36.182Z,102394.88
2022-12-18T06:27:03.259Z,102387.88
2022-12-18T06:29:29.604Z,102383.28
2022-12-18T06:31:56.039Z,102378.44
2022-12-18T06:34:22.432Z,102383.88
2022-12-18T06:36:48.804Z,102366.06
2022-12-18T06:39:15.219Z,102357.06
2022-12-18T06:41:41.620Z,102360.59
2022-12-18T06:44:07.956Z,102360.88
2022-12-18T06:46:34.319Z,102351.41
2022-12-18T06:49:00.696Z,102354.97
2022-12-18T06:51:27.131Z,102341.16
2022-12-18T06:53:53.505Z,102339.41
2022-12-18T06:56:20.048Z,102327.56
2022-12-18T06:58:46.482Z,102335.56
2022-12-18T07:01:13.667Z,102335.63
2022-12-18T07:03:43.998Z,102334.63
2022-12-18T07:06:15.835Z,102340.16
2022-12-18T07:08:42.274Z,102338.47
2022-12-18T07:11:08.672Z,102333.38
2022-12-18T07:13:35.029Z,102330.69
2022-12-18T07:16:10.898Z,102340.25
2022-12-18T07:18:41.583Z,102340.25
2022-12-18T07:21:12.536Z,102336.09
2022-12-18T07:23:39.294Z,102333.91
2022-12-18T07:26:07.647Z,102327.44
2022-12-18T07:28:34.432Z,102333.41
2022-12-18T07:31:04.791Z,102335.94
2022-12-18T07:33:31.165Z,102334.88
2022-12-18T07:35:59.933Z,102332.16
2022-12-18T07:38:27.219Z,102330.50
2022-12-18T07:40:53.867Z,102326.19
2022-12-18T07:43:20.270Z,102324.13
2022-12-18T07:45:49.881Z,102324.03
2022-12-18T07:48:16.272Z,102327.09
2022-12-18T07:50:42.652Z,102325.38
2022-12-18T07:53:09.051Z,102333.91
2022-12-18T07:55:59.896Z,102332.28
2022-12-18T07:58:21.772Z,102310.31
2022-12-18T08:00:48.225Z,102307.78
2022-12-18T08:03:14.631Z,102301.88
2022-12-18T08:05:40.991Z,102296.66
2022-12-18T08:08:07.394Z,102286.41
2022-12-18T08:10:33.784Z,102291.56
2022-12-18T08:13:04.654Z,102298.19
2022-12-18T08:15:31.381Z,102290.63
2022-12-18T08:17:57.998Z,102288.25
2022-12-18T08:20:24.381Z,102275.84
2022-12-18T08:22:50.855Z,102278.19
2022-12-18T08:25:17.246Z,102270.81
2022-12-18T08:27:43.615Z,102267.44
2022-12-18T08:30:10.499Z,102269.66
2022-12-18T08:32:37.376Z,102262.56
2022-12-18T08:35:04.187Z,102274.81
2022-12-18T08:37:30.543Z,102271.25
2022-12-18T08:39:56.935Z,102270.94
2022-12-18T08:42:41.936Z,102273.53
2022-12-18T08:45:08.701Z,102272.97
2022-12-18T08:47:35.108Z,102268.78
2022-12-18T08:50:01.740Z,102261.41
2022-12-18T08:52:29.162Z,102272.53
2022-12-18T08:54:55.531Z,102264.00
2022-12-18T08:57:21.900Z,102257.94
2022-12-18T08:59:49.241Z,102264.69
2022-12-18T09:02:15.750Z,102272.16
2022-12-18T09:04:42.292Z,102267.13
2022-12-18T09:07:08.666Z,102267.06
2022-12-18T09:09:35.038Z,102262.06
2022-12-18T09:12:01.430Z,102259.47
2022-12-18T09:14:27.791Z,102250.97
2022-12-18T09:16:54.251Z,102266.22
2022-12-18T09:19:20.625Z,102251.69
2022-12-18T09:21:48.484Z,102254.38
2022-12-18T09:24:15.710Z,102258.22
2022-12-18T09:26:42.626Z,102261.66
2022-12-18T09:29:11.379Z,102269.13
2022-12-18T09:31:39.053Z,102258.00
2022-12-18T09:34:07.212Z,102248.44
2022-12-18T09:36:33.798Z,102249.19
2022-12-18T09:39:03.721Z,102243.22
2022-12-18T09:41:32.727Z,102235.44
2022-12-18T09:44:10.182Z,102233.72
2022-12-18T09:46:39.367Z,102233.47
2022-12-18T09:49:08.376Z,102230.81
2022-12-18T09:51:39.607Z,102239.22
2022-12-18T09:54:08.331Z,102234.84
2022-12-18T09:56:40.241Z,102227.09
2022-12-18T09:59:06.710Z,102227.13
2022-12-18T10:01:43.231Z,102219.41
2022-12-18T10:04:10.855Z,102208.16
2022-12-18T10:06:42.581Z,102207.13
2022-12-18T10:09:11.912Z,102226.72
2022-12-18T10:11:57.304Z,102209.59
2022-12-18T10:14:32.911Z,102193.44
2022-12-18T10:17:11.628Z,102197.47
2022-12-18T10:19:41.619Z,102195.66
2022-12-18T10:22:17.035Z,102196.53
2022-12-18T10:24:50.007Z,102205.69
2022-12-18T10:27:17.906Z,102198.03
2022-12-18T10:29:45.289Z,102195.38
2022-12-18T10:32:19.885Z,102196.09
2022-12-18T10:34:54.090Z,102187.41
2022-12-18T10:37:26.212Z,102174.59
2022-12-18T10:40:09.811Z,102172.69
2022-12-18T10:42:36.182Z,102178.81
2022-12-18T10:45:05.034Z,102180.19
2022-12-18T10:47:31.484Z,102176.69
2022-12-18T10:49:57.930Z,102174.13
2022-12-18T10:52:26.110Z,102168.13
2022-12-18T10:54:54.113Z,102162.94
2022-12-18T10:57:32.670Z,102161.16
2022-12-18T11:00:02.311Z,102156.63
2022-12-18T11:02:34.367Z,102148.97
2022-12-18T11:05:01.445Z,102137.75
2022-12-18T11:07:47.573Z,102138.41
2022-12-18T11:10:17.088Z,102138.44
2022-12-18T11:12:43.688Z,102148.41
2022-12-18T11:15:24.752Z,102147.53
2022-12-18T11:17:52.207Z,102131.22
2022-12-18T11:20:36.016Z,102137.09
2022-12-18T11:23:11.600Z,102140.31
2022-12-18T11:25:38.025Z,102133.53
2022-12-18T11:28:04.532Z,102130.81
2022-12-18T11:30:32.769Z,102123.09
2022-12-18T11:33:10.474Z,102123.78
2022-12-18T11:35:51.894Z,102105.00
2022-12-18T11:38:21.443Z,102120.28
2022-12-18T11:40:51.307Z,102109.16
2022-12-18T11:43:32.893Z,102098.91
2022-12-18T11:46:20.017Z,102095.47
2022-12-18T11:49:02.107Z,102099.75
2022-12-18T11:51:33.078Z,102108.19
2022-12-18T11:53:59.617Z,102113.16
2022-12-18T11:56:35.926Z,102096.09
2022-12-18T11:59:17.711Z,102087.47
2022-12-18T12:01:51.840Z,102106.31
2022-12-18T12:04:30.787Z,102096.91
2022-12-18T12:07:03.306Z,102084.81
2022-12-18T12:09:45.278Z,102089.09
2022-12-18T12:12:22.344Z,102087.19
2022-12-18T12:14:50.093Z,102081.31
2022-12-18T12:17:31.299Z,102075.31
2022-12-18T12:19:58.319Z,102081.31
2022-12-18T12:22:34.336Z,102077.56
2022-12-18T12:25:14.974Z,102078.53
2022-12-18T12:27:53.911Z,102069.06
2022-12-18T12:30:32.710Z,102070.19
2022-12-18T12:33:17.498Z,102065.06
2022-12-18T12:35:46.931Z,102060.53
2022-12-18T12:38:13.403Z,102058.19
2022-12-18T12:40:58.568Z,102057.97
2022-12-18T12:43:33.250Z,102049.63
2022-12-18T12:46:02.678Z,102050.41
2022-12-18T12:48:29.084Z,102049.78
2022-12-18T12:50:56.096Z,102056.41
2022-12-18T12:53:26.130Z,102054.00
2022-12-18T12:55:53.308Z,102041.28
2022-12-18T12:58:22.812Z,102047.84
2022-12-18T13:01:00.648Z,102045.44
2022-12-18T13:03:46.798Z,102044.66
2022-12-18T13:06:33.787Z,102038.72
2022-12-18T13:09:01.197Z,102032.56
2022-12-18T13:11:57.833Z,102029.38
2022-12-18T13:14:28.667Z,102029.94
2022-12-18T13:17:15.588Z,102024.72
2022-12-18T13:19:42.257Z,102023.25
2022-12-18T13:22:21.913Z,102015.56
2022-12-18T13:24:48.383Z,102011.03
2022-12-18T13:27:34.586Z,102011.25
2022-12-18T13:30:00.997Z,102002.63
2022-12-18T13:32:27.685Z,101991.50
2022-12-18T13:35:13.249Z,101997.56
2022-12-18T13:37:59.923Z,101983.00
2022-12-18T13:40:42.186Z,101977.03
2022-12-18T13:43:28.828Z,101976.13
2022-12-18T13:46:06.642Z,101982.97
2022-12-18T13:48:34.934Z,101982.13
2022-12-18T13:51:09.848Z,101980.34
2022-12-18T13:53:50.595Z,101986.84
2022-12-18T13:56:23.376Z,101988.63
2022-12-18T13:59:09.173Z,101991.34
2022-12-18T14:01:35.699Z,101978.72
2022-12-18T14:04:12.513Z,101986.22
2022-12-18T14:06:39.203Z,101987.66
2022-12-18T14:09:06.122Z,101979.75
2022-12-18T14:11:35.963Z,101987.50
2022-12-18T14:14:02.549Z,101977.25
2022-12-18T14:16:29.291Z,101969.66
2022-12-18T14:19:01.940Z,101968.88
2022-12-18T14:21:35.996Z,101967.84
2022-12-18T14:24:15.120Z,101952.06
2022-12-18T14:26:44.025Z,101955.19
2022-12-18T14:29:27.273Z,101946.69
2022-12-18T14:32:17.362Z,101942.63
2022-12-18T14:34:45.394Z,101934.06
2022-12-18T14:37:12.831Z,101944.06
2022-12-18T14:39:39.767Z,101944.28
2022-12-18T14:42:06.155Z,101943.41
2022-12-18T14:44:44.145Z,101947.41
2022-12-18T14:47:18.456Z,101943.50
2022-12-18T14:49:44.995Z,101943.00
2022-12-18T14:52:23.658Z,101934.28
2022-12-18T14:54:50.094Z,101938.22
2022-12-18T14:57:22.802Z,101931.78
2022-12-18T14:59:49.232Z,101931.38
2022-12-18T15:02:24.177Z,101927.50
2022-12-18T15:05:01.384Z,101928.81
2022-12-18T15:07:27.734Z,101932.16
2022-12-18T15:10:09.394Z,101925.31
2022-12-18T15:12:37.207Z,101934.88
2022-12-18T15:15:04.867Z,101927.50
2022-12-18T15:17:31.996Z,101927.88
2022-12-18T15:20:03.256Z,101922.47
2022-12-18T15:22:31.580Z,101921.25
2022-12-18T15:24:59.013Z,101914.66
2022-12-18T15:27:25.342Z,101914.19
2022-12-18T15:30:23.882Z,101909.00
2022-12-18T15:32:50.835Z,101907.50
2022-12-18T15:35:26.569Z,101910.13
2022-12-18T15:37:53.311Z,101895.41
2022-12-18T15:40:21.241Z,101893.69
2022-12-18T15:43:06.949Z,101912.25
2022-12-18T15:45:33.488Z,101909.00
2022-12-18T15:48:00.173Z,101912.25
2022-12-18T15:50:29.303Z,101911.72
2022-12-18T15:52:57.085Z,101920.00
2022-12-18T15:55:43.269Z,101907.53
2022-12-18T15:58:10.772Z,101912.97
2022-12-18T16:00:38.801Z,101923.88
2022-12-18T16:03:05.610Z,101915.25
2022-12-18T16:05:33.022Z,101919.25
2022-12-18T16:07:59.442Z,101917.53
2022-12-18T16:10:26.317Z,101929.00
2022-12-18T16:12:53.085Z,101919.94
2022-12-18T16:15:24.272Z,101927.06
2022-12-18T16:17:51.538Z,101912.97
2022-12-18T16:20:19.925Z,101916.38
2022-12-18T16:22:46.947Z,101923.16
2022-12-18T16:25:23.957Z,101916.03
2022-12-18T16:27:50.844Z,101929.63
2022-12-18T16:30:19.938Z,101918.94
2022-12-18T16:32:46.713Z,101926.31
2022-12-18T16:35:14.339Z,101916.25
2022-12-18T16:37:41.214Z,101922.38
2022-12-18T16:40:09.752Z,101915.03
2022-12-18T16:42:37.165Z,101912.81
2022-12-18T16:45:04.257Z,101914.88
2022-12-18T16:47:30.670Z,101901.63
2022-12-18T16:49:57.029Z,101909.91
2022-12-18T16:52:23.403Z,101910.88
2022-12-18T16:54:49.774Z,101906.81
2022-12-18T16:57:18.222Z,101898.63
2022-12-18T16:59:44.766Z,101901.97
2022-12-18T17:02:15.786Z,101902.59
2022-12-18T17:04:43.989Z,101903.22
2022-12-18T17:07:10.876Z,101899.81
2022-12-18T17:09:37.742Z,101902.00
2022-12-18T17:12:04.807Z,101895.69
2022-12-18T17:14:32.078Z,101894.00
2022-12-18T17:17:20.213Z,101890.88
2022-12-18T17:19:46.365Z,101884.72
2022-12-18T17:22:12.751Z,101885.38
2022-12-18T17:24:39.207Z,101882.97
2022-12-18T17:27:05.790Z,101878.09
2022-12-18T17:29:32.191Z,101878.44
2022-12-18T17:31:58.735Z,101874.59
2022-12-18T17:34:27.130Z,101875.75
2022-12-18T17:36:53.560Z,101865.75
2022-12-18T17:39:20.712Z,101877.06
2022-12-18T17:41:47.508Z,101873.22
2022-12-18T17:44:13.964Z,101873.72
2022-12-18T17:46:42.769Z,101879.84
2022-12-18T17:49:10.136Z,101875.53
2022-12-18T17:51:36.575Z,101891.09
2022-12-18T17:54:03.010Z,101894.00
2022-12-18T17:56:29.639Z,101890.34
2022-12-18T17:58:56.033Z,101891.75
2022-12-18T18:01:23.849Z,101897.41
2022-12-18T18:03:51.552Z,101895.69
2022-12-18T18:06:20.299Z,101887.16
2022-12-18T18:08:46.695Z,101896.41
2022-12-18T18:11:33.437Z,101892.44
2022-12-18T18:14:02.989Z,101896.28
2022-12-18T18:16:32.426Z,101893.13
2022-12-18T18:19:01.616Z,101898.56
2022-12-18T18:21:28.547Z,101899.22
2022-12-18T18:23:55.406Z,101903.69
2022-12-18T18:26:22.195Z,101905.06
2022-12-18T18:28:53.726Z,101898.06
2022-12-18T18:31:20.859Z,101899.44
2022-12-18T18:33:50.176Z,101908.59
2022-12-18T18:36:16.636Z,101896.56
2022-12-18T18:38:48.076Z,101896.78
2022-12-18T18:41:15.094Z,101897.25
2022-12-18T18:43:42.368Z,101886.41
2022-12-18T18:46:11.235Z,101885.44
2022-12-18T18:48:37.752Z,101889.72
2022-12-18T18:51:05.773Z,101888.25
2022-12-18T18:53:36.176Z,101897.47
2022-12-18T18:56:45.390Z,101889.81
2022-12-18T18:58:50.254Z,101881.31
2022-12-18T19:01:17.883Z,101880.97
2022-12-18T19:03:45.303Z,101884.94
2022-12-18T19:06:14.039Z,101882.78
2022-12-18T19:08:40.920Z,101875.66
2022-12-18T19:11:31.734Z,101883.28
2022-12-18T19:14:01.449Z,101890.25
2022-12-18T19:16:28.376Z,101889.00
2022-12-18T19:19:00.004Z,101887.19
2022-12-18T19:21:28.415Z,101887.25
2022-12-18T19:23:57.578Z,101880.88
2022-12-18T19:26:28.002Z,101879.81
2022-12-18T19:29:00.126Z,101882.97
2022-12-18T19:31:31.803Z,101892.59
2022-12-18T19:34:01.698Z,101889.44
2022-12-18T19:36:28.737Z,101888.19
2022-12-18T19:38:56.794Z,101887.31
2022-12-18T19:41:24.392Z,101885.06
2022-12-18T19:43:52.504Z,101869.78
2022-12-18T19:46:20.715Z,101874.03
2022-12-18T19:48:47.810Z,101871.56
2022-12-18T19:51:18.858Z,101870.44
2022-12-18T19:53:45.715Z,101875.75
2022-12-18T19:56:14.086Z,101870.72
2022-12-18T19:58:41.260Z,101881.34
2022-12-18T20:01:08.050Z,101884.25
2022-12-18T20:03:36.387Z,101876.28
2022-12-18T20:06:12.286Z,101881.63
2022-12-18T20:08:39.038Z,101892.31
2022-12-18T20:11:05.884Z,101897.50
2022-12-18T20:13:32.506Z,101895.91
2022-12-18T20:15:59.227Z,101895.03
2022-12-18T20:18:25.865Z,101893.41
2022-12-18T20:20:52.307Z,101889.75
2022-12-18T20:23:19.375Z,101887.28
2022-12-18T20:25:45.909Z,101892.78
2022-12-18T20:28:12.333Z,101880.56
2022-12-18T20:30:38.726Z,101872.47
2022-12-18T20:33:05.162Z,101877.44
2022-12-18T20:35:32.100Z,101864.44
2022-12-18T20:37:59.196Z,101868.75
2022-12-18T20:40:27.388Z,101876.88
2022-12-18T20:42:53.773Z,101876.34
2022-12-18T20:45:20.262Z,101872.44
2022-12-18T20:47:46.655Z,101881.84
2022-12-18T20:50:13.049Z,101894.25
2022-12-18T20:52:39.462Z,101891.84
2022-12-18T20:55:06.520Z,101893.88
2022-12-18T20:57:33.042Z,101896.13
2022-12-18T20:59:59.714Z,101887.66
2022-12-18T21:02:26.342Z,101892.53
2022-12-18T21:04:53.367Z,101889.78
2022-12-18T21:07:19.762Z,101893.22
2022-12-18T21:09:46.141Z,101895.19
2022-12-18T21:12:40.283Z,101897.47
2022-12-18T21:15:10.667Z,101879.56
2022-12-18T21:17:44.177Z,101885.22
2022-12-18T21:20:11.814Z,101883.03
2022-12-18T21:22:44.081Z,101880.44
2022-12-18T21:25:10.480Z,101881.16
2022-12-18T21:27:36.886Z,101883.59
2022-12-18T21:30:03.449Z,101877.94
2022-12-18T21:32:29.907Z,101876.41
2022-12-18T21:34:59.882Z,101879.97
2022-12-18T21:37:26.612Z,101878.81
2022-12-18T21:39:53.041Z,101879.97
2022-12-18T21:42:37.815Z,101881.66
2022-12-18T21:45:04.408Z,101880.25
2022-12-18T21:47:30.752Z,101864.00
2022-12-18T21:49:57.146Z,101860.38
2022-12-18T21:52:29.801Z,101852.19
2022-12-18T21:55:06.229Z,101854.44
2022-12-18T21:57:35.446Z,101852.72
2022-12-18T22:00:02.835Z,101849.22
2022-12-18T22:02:38.527Z,101847.31
2022-12-18T22:05:05.177Z,101833.97
2022-12-18T22:07:31.617Z,101836.47
2022-12-18T22:09:58.137Z,101827.06
2022-12-18T22:12:35.489Z,101824.28
2022-12-18T22:15:04.300Z,101827.47
2022-12-18T22:17:30.874Z,101823.50
2022-12-18T22:19:57.510Z,101825.13
2022-12-18T22:22:23.914Z,101805.22
2022-12-18T22:24:50.307Z,101802.78
2022-12-18T22:27:16.694Z,101799.63
2022-12-18T22:30:01.494Z,101806.38
2022-12-18T22:32:31.310Z,101806.31
2022-12-18T22:35:03.420Z,101796.31
2022-12-18T22:37:31.620Z,101789.47
2022-12-18T22:39:57.972Z,101785.91
2022-12-18T22:42:24.438Z,101791.59
2022-12-18T22:44:50.904Z,101787.41
2022-12-18T22:47:17.341Z,101775.09
2022-12-18T22:49:43.865Z,101763.97
2022-12-18T22:52:10.452Z,101764.84
2022-12-18T22:54:36.908Z,101769.03
2022-12-18T22:57:03.338Z,101755.06
2022-12-18T22:59:29.740Z,101757.69
2022-12-18T23:01:58.520Z,101759.16
2022-12-18T23:04:30.183Z,101757.03
2022-12-18T23:07:03.955Z,101752.75
2022-12-18T23:09:30.316Z,101751.91
2022-12-18T23:11:56.700Z,101740.41
2022-12-18T23:14:23.056Z,101744.88
2022-12-18T23:16:49.439Z,101739.94
2022-12-18T23:19:18.605Z,101736.44
2022-12-18T23:21:45.044Z,101735.19
2022-12-18T23:24:11.448Z,101734.28
2022-12-18T23:26:37.918Z,101732.63
2022-12-18T23:29:04.567Z,101727.69
2022-12-18T23:31:33.702Z,101715.78
2022-12-18T23:34:01.238Z,101710.44
2022-12-18T23:36:27.714Z,101714.53
2022-12-18T23:38:57.263Z,101706.69
2022-12-18T23:41:24.900Z,101693.09
2022-12-18T23:43:51.809Z,101694.81
2022-12-18T23:46:28.819Z,101684.56
2022-12-18T23:48:57.035Z,101677.03
2022-12-18T23:51:25.222Z,101677.72
2022-12-18T23:53:52.250Z,101674.34
2022-12-18T23:56:19.097Z,101674.97
2022-12-18T23:58:45.505Z,101673.31
